| time (UTC) | temp C | wind direction | speed KPH | gust KPH | rain 1hr cm | rain 24hr cm | rain mn cm | humidity % | barometer mb |
| 20260505122703 | 21 | 0 | 0.0 | 9.7 | 0.25 | 2.74 | 2.74 | 97 | 1004.1 |
| 20260505121703 | 21 | 0 | 0.0 | 9.7 | 0.25 | 2.74 | 2.69 | 97 | 1004.2 |
| 20260505120704 | 21 | 210 | 1.6 | 8.0 | 0.30 | 2.74 | 2.69 | 97 | 1004.2 |
| 20260505115703 | 21 | 0 | 0.0 | 8.0 | 0.30 | 2.69 | 2.64 | 97 | 1004.2 |
| 20260505114703 | 21 | 0 | 0.0 | 8.0 | 0.30 | 2.64 | 2.59 | 97 | 1004.1 |
| 20260505113703 | 21 | 180 | 3.2 | 8.0 | 0.25 | 2.64 | 2.54 | 97 | 1004.1 |
| 20260505112703 | 21 | 190 | 3.2 | 8.0 | 0.25 | 2.59 | 2.49 | 97 | 1004.1 |
| 20260505111704 | 21 | 220 | 1.6 | 8.0 | 0.20 | 2.54 | 2.44 | 97 | 1004.1 |
| 20260505110703 | 21 | 250 | 3.2 | 9.7 | 0.20 | 2.49 | 2.39 | 96 | 1004.1 |
| 20260505101704 | 21 | 0 | 0.0 | 9.7 | 0.36 | 2.44 | 2.26 | 95 | 1003.3 |
| 20260505100704 | 21 | 0 | 1.6 | 12.9 | 0.36 | 2.44 | 2.21 | 94 | 1003.7 |
| 20260505095703 | 21 | 340 | 3.2 | 12.9 | 0.36 | 2.39 | 2.16 | 94 | 1003.5 |
| 20260505094704 | 21 | 10 | 4.8 | 12.9 | 0.30 | 2.36 | 2.06 | 94 | 1003.3 |
| 20260505093703 | 21 | 350 | 3.2 | 12.9 | 0.36 | 2.31 | 2.01 | 94 | 1003.3 |
| 20260505092703 | 21 | 340 | 4.8 | 12.9 | 0.30 | 2.26 | 1.91 | 94 | 1003.2 |
| 20260505091703 | 21 | 330 | 3.2 | 12.9 | 0.41 | 2.26 | 1.91 | 94 | 1003.0 |
| 20260505090704 | 21 | 340 | 3.2 | 12.9 | 0.46 | 2.21 | 1.85 | 94 | 1002.9 |
| 20260505085703 | 21 | 340 | 4.8 | 12.9 | 0.51 | 2.16 | 1.80 | 94 | 1003.0 |
| 20260505084703 | 21 | 350 | 6.4 | 12.9 | 0.66 | 2.11 | 1.75 | 93 | 1002.9 |
| 20260505083704 | 21 | 330 | 3.2 | 12.9 | 0.89 | 2.01 | 1.65 | 94 | 1003.2 |
| 20260505082704 | 21 | 10 | 1.6 | 12.9 | 1.04 | 1.96 | 1.60 | 94 | 1003.1 |
| 20260505081703 | 21 | 10 | 3.2 | 12.9 | 0.99 | 1.85 | 1.50 | 94 | 1002.9 |
| 20260505080703 | 21 | 330 | 3.2 | 11.3 | 0.94 | 1.75 | 1.40 | 93 | 1003.1 |
| 20260505075704 | 22 | 0 | 3.2 | 11.3 | 0.84 | 1.65 | 1.30 | 93 | 1003.1 |
| 20260505074704 | 22 | 340 | 6.4 | 11.3 | 0.66 | 1.45 | 1.09 | 92 | 1003.3 |
| 20260505073703 | 22 | 330 | 3.2 | 11.3 | 0.30 | 1.09 | 0.76 | 90 | 1003.4 |
| 20260505072703 | 22 | 320 | 3.2 | 11.3 | 0.10 | 0.89 | 0.56 | 89 | 1003.3 |
| 20260505071703 | 22 | 330 | 3.2 | 11.3 | 0.05 | 0.84 | 0.51 | 88 | 1003.2 |
| 20260505070704 | 22 | 340 | 3.2 | 11.3 | 0.00 | 0.79 | 0.46 | 87 | 1003.3 |
| 20260505065704 | 22 | 330 | 3.2 | 11.3 | 0.00 | 0.79 | 0.46 | 87 | 1003.2 |
| 20260505064704 | 23 | 320 | 3.2 | 11.3 | 0.00 | 0.79 | 0.46 | 86 | 1003.3 |
| 20260505063704 | 23 | 300 | 3.2 | 11.3 | 0.05 | 0.79 | 0.46 | 86 | 1003.3 |
| 20260505062703 | 23 | 300 | 1.6 | 11.3 | 0.10 | 0.79 | 0.46 | 89 | 1003.4 |
| 20260505061704 | 22 | 340 | 4.8 | 11.3 | 0.10 | 0.79 | 0.46 | 87 | 1003.5 |
| 20260505060704 | 23 | 340 | 1.6 | 8.0 | 0.10 | 0.79 | 0.46 | 88 | 1003.6 |
| 20260505055703 | 23 | 350 | 1.6 | 8.0 | 0.10 | 0.79 | 0.46 | 89 | 1003.8 |
| 20260505054704 | 23 | 340 | 3.2 | 8.0 | 0.10 | 0.79 | 0.46 | 87 | 1003.9 |
| 20260505053703 | 23 | 340 | 3.2 | 8.0 | 0.05 | 0.76 | 0.41 | 87 | 1004.1 |
| 20260505052704 | 23 | 340 | 3.2 | 8.0 | 0.00 | 0.71 | 0.36 | 86 | 1004.2 |
| 20260505051703 | 23 | 340 | 3.2 | 8.0 | 0.00 | 0.71 | 0.36 | 86 | 1004.3 |
| 20260505050703 | 23 | 310 | 1.6 | 8.0 | 0.00 | 0.71 | 0.36 | 86 | 1004.4 |
| 20260505041703 | 23 | 260 | 3.2 | 8.0 | 0.00 | 0.71 | 0.36 | 87 | 1004.8 |
| 20260505040706 | 23 | 250 | 1.6 | 8.0 | 0.00 | 0.71 | 0.36 | 87 | 1004.8 |
| 20260505035704 | 23 | 240 | 1.6 | 8.0 | 0.00 | 0.71 | 0.36 | 87 | 1004.8 |
| 20260505034703 | 23 | 230 | 1.6 | 8.0 | 0.00 | 0.71 | 0.36 | 88 | 1004.8 |
| 20260505033703 | 23 | 0 | 0.0 | 8.0 | 0.00 | 0.71 | 0.36 | 90 | 1004.8 |
| 20260505032704 | 22 | 0 | 0.0 | 8.0 | 0.00 | 0.71 | 0.36 | 91 | 1005.0 |
| 20260505031704 | 22 | 30 | 0.0 | 8.0 | 0.05 | 0.71 | 0.36 | 89 | 1005.1 |
| 20260505030703 | 22 | 240 | 1.6 | 9.7 | 0.05 | 0.71 | 0.36 | 90 | 1005.3 |
| 20260505025703 | 22 | 230 | 1.6 | 9.7 | 0.10 | 0.71 | 0.36 | 92 | 1005.3 |
| 20260505024704 | 22 | 0 | 0.0 | 9.7 | 0.20 | 0.71 | 0.36 | 93 | 1005.2 |
| 20260505023704 | 22 | 0 | 0.0 | 9.7 | 0.20 | 0.71 | 0.36 | 92 | 1005.2 |
| 20260505022704 | 22 | 0 | 0.0 | 9.7 | 0.20 | 0.71 | 0.36 | 92 | 1005.2 |
| 20260505021703 | 22 | 0 | 0.0 | 9.7 | 0.20 | 0.71 | 0.36 | 91 | 1005.2 |
| 20260505020704 | 22 | 310 | 1.6 | 6.4 | 0.20 | 0.66 | 0.30 | 89 | 1005.1 |
| 20260505015704 | 22 | 310 | 1.6 | 6.4 | 0.15 | 0.61 | 0.25 | 88 | 1005.3 |
| 20260505014703 | 22 | 0 | 0.0 | 6.4 | 0.05 | 0.51 | 0.15 | 89 | 1005.2 |
| 20260505013703 | 22 | 310 | 1.6 | 6.4 | 0.05 | 0.51 | 0.15 | 90 | 1005.1 |
| 20260505012703 | 22 | 260 | 4.8 | 6.4 | 0.05 | 0.51 | 0.15 | 88 | 1005.3 |
| 20260505011703 | 22 | 0 | 0.0 | 6.4 | 0.05 | 0.51 | 0.15 | 89 | 1005.1 |
| 20260505010704 | 22 | 0 | 0.0 | 9.7 | 0.00 | 0.46 | 0.10 | 87 | 1005.1 |
| 20260505005704 | 22 | 0 | 0.0 | 9.7 | 0.00 | 0.46 | 0.10 | 89 | 1005.1 |
| 20260505004703 | 21 | 0 | 0.0 | 9.7 | 0.00 | 0.46 | 0.10 | 90 | 1004.9 |
| 20260505003708 | 22 | 0 | 0.0 | 9.7 | 0.00 | 0.46 | 0.10 | 90 | 1004.9 |
| 20260505002704 | 21 | 30 | 1.6 | 9.7 | 0.00 | 0.46 | 0.10 | 90 | 1004.9 |
| 20260505001705 | 21 | 20 | 3.2 | 9.7 | 0.00 | 0.46 | 0.10 | 89 | 1004.9 |
| 20260505000704 | 21 | 350 | 1.6 | 12.9 | 0.00 | 0.46 | 0.10 | 90 | 1004.9 |
| 20260504235704 | 21 | 320 | 3.2 | 12.9 | 0.00 | 0.46 | 0.10 | 89 | 1004.9 |
| 20260504234703 | 21 | 330 | 3.2 | 12.9 | 0.00 | 0.46 | 0.10 | 89 | 1004.8 |
| 20260504233703 | 21 | 340 | 3.2 | 12.9 | 0.00 | 0.46 | 0.10 | 90 | 1004.6 |
| 20260504232704 | 21 | 340 | 1.6 | 12.9 | 0.00 | 0.46 | 0.10 | 91 | 1004.7 |
| 20260504231704 | 21 | 0 | 3.2 | 12.9 | 0.00 | 0.46 | 0.10 | 92 | 1004.6 |
| 20260504230704 | 21 | 0 | 0.0 | 9.7 | 0.00 | 0.46 | 0.10 | 92 | 1004.4 |
| 20260504225704 | 21 | 330 | 1.6 | 9.7 | 0.00 | 0.46 | 0.10 | 91 | 1004.4 |
| 20260504224703 | 21 | 340 | 4.8 | 9.7 | 0.00 | 0.46 | 0.10 | 91 | 1004.3 |
| 20260504223704 | 21 | 320 | 1.6 | 9.7 | 0.00 | 0.46 | 0.10 | 90 | 1004.3 |
| 20260504222705 | 21 | 330 | 3.2 | 9.7 | 0.00 | 0.46 | 0.10 | 90 | 1004.2 |
| 20260504221704 | 21 | 330 | 3.2 | 9.7 | 0.00 | 0.46 | 0.10 | 90 | 1004.2 |
| 20260504220704 | 21 | 330 | 3.2 | 8.0 | 0.00 | 0.46 | 0.10 | 93 | 1004.0 |
| 20260504215703 | 22 | 0 | 0.0 | 8.0 | 0.00 | 0.46 | 0.10 | 94 | 1003.9 |
| 20260504214704 | 22 | 0 | 0.0 | 8.0 | 0.00 | 0.46 | 0.10 | 93 | 1003.8 |
| 20260504213703 | 22 | 240 | 1.6 | 8.0 | 0.00 | 0.46 | 0.10 | 92 | 1003.9 |
| 20260504212703 | 22 | 230 | 1.6 | 8.0 | 0.00 | 0.46 | 0.10 | 92 | 1003.8 |
| 20260504211704 | 22 | 200 | 3.2 | 8.0 | 0.00 | 0.46 | 0.10 | 92 | 1003.8 |
| 20260504210703 | 21 | 250 | 3.2 | 4.8 | 0.00 | 0.46 | 0.10 | 93 | 1003.8 |
| 20260504205703 | 22 | 0 | 0.0 | 4.8 | 0.00 | 0.46 | 0.10 | 94 | 1003.7 |
| 20260504204703 | 21 | 220 | 1.6 | 4.8 | 0.00 | 0.46 | 0.10 | 95 | 1003.6 |
| 20260504203704 | 21 | 230 | 1.6 | 4.8 | 0.00 | 0.46 | 0.10 | 95 | 1003.5 |
| 20260504202703 | 21 | 0 | 0.0 | 4.8 | 0.00 | 0.46 | 0.10 | 95 | 1003.4 |
| 20260504201703 | 21 | 0 | 0.0 | 4.8 | 0.00 | 0.46 | 0.10 | 95 | 1003.3 |
| 20260504200704 | 21 | 0 | 0.0 | 6.4 | 0.00 | 0.46 | 0.10 | 95 | 1003.3 |
| 20260504195703 | 21 | 0 | 0.0 | 6.4 | 0.00 | 0.46 | 0.10 | 95 | 1003.4 |
| 20260504194703 | 21 | 0 | 0.0 | 6.4 | 0.00 | 0.46 | 0.10 | 95 | 1003.3 |
| 20260504193704 | 21 | 210 | 1.6 | 6.4 | 0.00 | 0.46 | 0.10 | 95 | 1003.4 |
| 20260504192704 | 21 | 0 | 0.0 | 6.4 | 0.00 | 0.46 | 0.10 | 95 | 1003.3 |
| 20260504191703 | 21 | 230 | 3.2 | 6.4 | 0.00 | 0.46 | 0.10 | 96 | 1003.3 |
| 20260504190703 | 21 | 240 | 1.6 | 6.4 | 0.00 | 0.46 | 0.10 | 96 | 1003.3 |
| 20260504185704 | 21 | 0 | 0.0 | 6.4 | 0.00 | 0.46 | 0.10 | 96 | 1003.3 |
| 20260504184703 | 21 | 170 | 1.6 | 6.4 | 0.00 | 0.46 | 0.10 | 96 | 1003.2 |
| 20260504183703 | 21 | 160 | 1.6 | 6.4 | 0.05 | 0.46 | 0.10 | 95 | 1003.2 |
| 20260504182704 | 21 | 0 | 0.0 | 6.4 | 0.05 | 0.46 | 0.10 | 96 | 1003.5 |
| 20260504181703 | 21 | 0 | 0.0 | 6.4 | 0.05 | 0.46 | 0.10 | 96 | 1003.6 |
| 20260504180703 | 21 | 0 | 0.0 | 3.2 | 0.05 | 0.46 | 0.10 | 96 | 1003.6 |
| 20260504175703 | 21 | 160 | 1.6 | 3.2 | 0.05 | 0.46 | 0.10 | 96 | 1003.6 |
| 20260504174704 | 21 | 0 | 0.0 | 3.2 | 0.05 | 0.46 | 0.10 | 95 | 1003.8 |
| 20260504173706 | 21 | 0 | 0.0 | 3.2 | 0.00 | 0.41 | 0.05 | 96 | 1004.0 |
| 20260504172703 | 21 | 0 | 0.0 | 3.2 | 0.00 | 0.41 | 0.05 | 95 | 1003.9 |
| 20260504171705 | 21 | 0 | 0.0 | 3.2 | 0.05 | 0.41 | 0.05 | 95 | 1004.1 |
| 20260504170703 | 21 | 0 | 0.0 | 12.9 | 0.05 | 0.41 | 0.05 | 95 | 1004.2 |
| 20260504150704 | 21 | 270 | 1.6 | 8.0 | 0.00 | 0.36 | 0.36 | 92 | 1005.1 |
| 20260504140703 | 22 | 330 | 1.6 | 19.3 | 0.00 | 0.36 | 0.36 | 92 | 1004.7 |
| 20260504130703 | 21 | 0 | 0.0 | 14.5 | 0.05 | 0.36 | 0.36 | 95 | 1004.6 |